Victor, Washington
Current Conditions -  °F | °C
As of 7:53 AM on Wednesday 22 Oct 2014 (Local Time) from KTIW Reporting Station
Overcast Overcast  
Wind Chill: 56°   Ceiling: 3300
Heat Index: 56°   Visibility: 10mi
Dew Point: 53°   Wind: 10mph
Humidity: 90%   Direction: 170°S
Pressure: 29.7"   Gusts: NA
Location:  47.2986°N, 122.616°W
Report Text: KTIW 221453Z AUTO 17009KT 10SM FEW015 OVC033 13/12 A2970 RMK AO2 RAE16B42E53 SLP056 P0000 60021 T01330117 51011
Loading
Personal Weather Stations






























Interactive Weather Map
Tropical Storm Tracking
New forecast layout! Learn more

10-Day Weather Forecast

Advertisements
Track Severe Weather on mobile